createdAt,value
2023-08-16T00:01:46.296Z,4.53
2023-08-16T00:04:13.571Z,4.32
2023-08-16T00:06:44.245Z,3.85
2023-08-16T00:09:11.368Z,3.67
2023-08-16T00:11:38.305Z,3.55
2023-08-16T00:14:05.494Z,4.03
2023-08-16T00:16:32.698Z,4.00
2023-08-16T00:18:59.742Z,3.85
2023-08-16T00:21:26.877Z,3.80
2023-08-16T00:23:54.023Z,3.67
2023-08-16T00:26:21.794Z,3.70
2023-08-16T00:28:49.478Z,3.78
2023-08-16T00:31:17.026Z,3.47
2023-08-16T00:33:43.868Z,3.75
2023-08-16T00:36:11.029Z,3.80
2023-08-16T00:38:43.916Z,4.10
2023-08-16T00:41:14.780Z,4.05
2023-08-16T00:43:42.069Z,3.87
2023-08-16T00:46:12.556Z,3.47
2023-08-16T00:48:42.833Z,3.53
2023-08-16T00:51:11.687Z,3.22
2023-08-16T00:53:40.610Z,3.58
2023-08-16T00:56:07.875Z,3.75
2023-08-16T00:58:34.854Z,4.00
2023-08-16T01:01:01.834Z,4.95
2023-08-16T01:03:29.060Z,4.53
2023-08-16T01:05:56.110Z,4.90
2023-08-16T01:08:23.038Z,5.40
2023-08-16T01:10:55.813Z,5.10
2023-08-16T01:13:40.464Z,5.28
2023-08-16T01:16:10.644Z,5.22
2023-08-16T01:18:38.514Z,5.00
2023-08-16T01:21:08.524Z,5.32
2023-08-16T01:24:06.375Z,4.93
2023-08-16T01:26:34.233Z,4.88
2023-08-16T01:29:03.454Z,4.65
2023-08-16T01:31:31.676Z,5.38
2023-08-16T01:34:00.421Z,4.57
2023-08-16T01:36:28.546Z,4.63
2023-08-16T01:38:56.700Z,5.00
2023-08-16T01:41:23.558Z,4.00
2023-08-16T01:43:51.363Z,4.90
2023-08-16T01:46:19.727Z,4.28
2023-08-16T01:48:48.272Z,4.55
2023-08-16T01:51:15.548Z,4.00
2023-08-16T01:53:42.564Z,3.92
2023-08-16T01:56:09.478Z,4.18
2023-08-16T01:58:36.464Z,4.53
2023-08-16T02:01:03.546Z,5.22
2023-08-16T02:03:30.670Z,5.57
2023-08-16T02:05:57.633Z,5.38
2023-08-16T02:08:24.533Z,5.45
2023-08-16T02:10:51.446Z,4.43
2023-08-16T02:13:18.290Z,5.18
2023-08-16T02:15:45.208Z,4.70
2023-08-16T02:18:12.673Z,4.82
2023-08-16T02:20:40.055Z,5.05
2023-08-16T02:23:08.097Z,4.82
2023-08-16T02:25:35.251Z,4.40
2023-08-16T02:28:02.236Z,4.65
2023-08-16T02:30:29.378Z,4.40
2023-08-16T02:32:56.516Z,5.32
2023-08-16T02:35:23.587Z,4.72
2023-08-16T02:37:50.414Z,4.57
2023-08-16T02:40:17.759Z,4.70
2023-08-16T02:42:46.845Z,4.70
2023-08-16T02:45:14.080Z,4.32
2023-08-16T02:47:41.062Z,4.10
2023-08-16T02:50:08.612Z,3.63
2023-08-16T02:52:35.876Z,4.20
2023-08-16T02:55:03.076Z,4.03
2023-08-16T02:57:30.067Z,4.38
2023-08-16T02:59:57.145Z,4.53
2023-08-16T03:02:24.508Z,5.20
2023-08-16T03:04:51.484Z,3.88
2023-08-16T03:07:18.419Z,4.03
2023-08-16T03:09:45.726Z,4.32
2023-08-16T03:12:12.629Z,5.68
2023-08-16T03:14:39.472Z,5.28
2023-08-16T03:17:06.943Z,5.80
2023-08-16T03:19:34.042Z,6.32
2023-08-16T03:22:01.012Z,5.55
2023-08-16T03:24:32.217Z,5.50
2023-08-16T03:26:59.130Z,5.85
2023-08-16T03:29:26.033Z,5.40
2023-08-16T03:31:53.058Z,4.85
2023-08-16T03:34:20.159Z,5.00
2023-08-16T03:36:47.224Z,5.40
2023-08-16T03:39:14.214Z,5.35
2023-08-16T03:41:41.466Z,5.22
2023-08-16T03:44:08.428Z,6.32
2023-08-16T03:46:35.863Z,4.53
2023-08-16T03:49:03.036Z,4.85
2023-08-16T03:51:29.944Z,5.32
2023-08-16T03:53:56.879Z,5.68
2023-08-16T03:56:25.221Z,5.90
2023-08-16T03:58:52.190Z,7.28
2023-08-16T04:01:19.544Z,6.72
2023-08-16T04:03:47.910Z,6.55
2023-08-16T04:06:15.047Z,6.95
2023-08-16T04:08:42.142Z,6.32
2023-08-16T04:11:09.021Z,6.22
2023-08-16T04:13:35.990Z,6.78
2023-08-16T04:16:02.949Z,6.95
2023-08-16T04:18:30.142Z,7.18
2023-08-16T04:20:57.966Z,7.10
2023-08-16T04:23:25.333Z,7.05
2023-08-16T04:25:52.268Z,6.85
2023-08-16T04:28:19.323Z,6.80
2023-08-16T04:30:46.308Z,6.85
2023-08-16T04:33:13.653Z,6.43
2023-08-16T04:35:40.591Z,7.57
2023-08-16T04:38:07.551Z,5.55
2023-08-16T04:40:34.368Z,7.40
2023-08-16T04:43:01.168Z,6.60
2023-08-16T04:45:28.169Z,5.32
2023-08-16T04:47:55.094Z,6.60
2023-08-16T04:50:21.967Z,5.90
2023-08-16T04:52:48.926Z,6.30
2023-08-16T04:55:17.133Z,6.38
2023-08-16T04:57:45.112Z,5.90
2023-08-16T05:00:12.689Z,6.75
2023-08-16T05:02:39.628Z,5.85
2023-08-16T05:05:07.039Z,5.63
2023-08-16T05:07:34.506Z,5.63
2023-08-16T05:10:01.445Z,6.82
2023-08-16T05:12:28.546Z,6.90
2023-08-16T05:14:55.622Z,6.85
2023-08-16T05:17:22.967Z,7.65
2023-08-16T05:19:50.152Z,6.65
2023-08-16T05:22:17.085Z,6.32
2023-08-16T05:24:43.939Z,6.45
2023-08-16T05:27:13.554Z,5.95
2023-08-16T05:29:41.251Z,6.32
2023-08-16T05:32:08.246Z,5.60
2023-08-16T05:34:35.567Z,5.90
2023-08-16T05:37:03.012Z,5.85
2023-08-16T05:39:30.088Z,4.80
2023-08-16T05:41:56.932Z,4.70
2023-08-16T05:44:23.932Z,4.22
2023-08-16T05:46:50.792Z,4.57
2023-08-16T05:49:20.099Z,4.50
2023-08-16T05:51:47.024Z,4.53
2023-08-16T05:54:13.842Z,4.45
2023-08-16T05:56:40.774Z,8.90
2023-08-16T05:59:07.734Z,9.32
2023-08-16T06:01:34.562Z,9.20
2023-08-16T06:04:01.683Z,8.52
2023-08-16T06:06:28.702Z,8.40
2023-08-16T06:08:55.655Z,7.78
2023-08-16T06:11:22.633Z,8.70
2023-08-16T06:13:49.700Z,7.70
2023-08-16T06:16:17.568Z,8.38
2023-08-16T06:18:45.818Z,8.07
2023-08-16T06:21:12.679Z,7.68
2023-08-16T06:23:40.990Z,7.32
2023-08-16T06:26:08.160Z,7.18
2023-08-16T06:28:35.346Z,7.43
2023-08-16T06:33:38.736Z,6.20
2023-08-16T06:36:06.077Z,7.05
2023-08-16T06:38:33.318Z,6.18
2023-08-16T06:41:00.435Z,5.38
2023-08-16T06:43:27.477Z,4.85
2023-08-16T06:45:54.415Z,5.82
2023-08-16T06:48:21.308Z,5.82
2023-08-16T06:50:48.274Z,5.25
2023-08-16T06:53:15.249Z,4.93
2023-08-16T06:55:42.320Z,4.55
2023-08-16T06:58:09.386Z,4.20
2023-08-16T07:00:36.601Z,3.63
2023-08-16T07:03:04.316Z,3.13
2023-08-16T07:05:31.302Z,2.78
2023-08-16T07:07:58.601Z,3.40
2023-08-16T07:10:25.465Z,3.15
2023-08-16T07:12:52.407Z,2.85
2023-08-16T07:15:19.421Z,2.80
2023-08-16T07:17:46.458Z,2.83
2023-08-16T07:20:13.563Z,2.30
2023-08-16T07:22:40.733Z,2.25
2023-08-16T07:25:08.950Z,2.10
2023-08-16T07:27:36.226Z,1.92
2023-08-16T07:30:08.514Z,2.15
2023-08-16T07:32:36.397Z,2.03
2023-08-16T07:35:04.774Z,1.90
2023-08-16T07:37:33.508Z,3.05
2023-08-16T07:40:00.639Z,1.77
2023-08-16T07:42:27.950Z,1.42
2023-08-16T07:44:55.410Z,1.70
2023-08-16T07:47:22.452Z,1.27
2023-08-16T07:49:49.536Z,1.30
2023-08-16T07:52:16.555Z,1.40
2023-08-16T07:54:43.568Z,1.30
2023-08-16T07:57:10.456Z,1.45
2023-08-16T07:59:37.477Z,1.60
2023-08-16T08:02:07.228Z,1.20
2023-08-16T08:04:35.281Z,1.55
2023-08-16T08:07:02.288Z,1.60
2023-08-16T08:09:29.486Z,1.00
2023-08-16T08:11:56.578Z,1.35
2023-08-16T08:14:23.578Z,1.00
2023-08-16T08:16:52.662Z,1.77
2023-08-16T08:19:19.631Z,1.00
2023-08-16T08:21:46.717Z,1.00
2023-08-16T08:24:16.891Z,1.10
2023-08-16T08:26:44.414Z,1.10
2023-08-16T08:29:11.426Z,1.15
2023-08-16T08:31:38.568Z,1.00
2023-08-16T08:34:05.588Z,0.90
2023-08-16T08:36:32.907Z,0.80
2023-08-16T08:39:00.730Z,0.77
2023-08-16T08:41:37.774Z,0.75
2023-08-16T08:44:10.595Z,0.75
2023-08-16T08:46:38.045Z,1.05
2023-08-16T08:49:06.232Z,0.85
2023-08-16T08:51:37.171Z,0.82
2023-08-16T08:54:04.334Z,0.70
2023-08-16T08:56:32.108Z,0.65
2023-08-16T08:59:14.310Z,1.17
2023-08-16T09:01:44.167Z,0.85
2023-08-16T09:04:14.066Z,0.82
2023-08-16T09:06:42.256Z,0.60
2023-08-16T09:09:10.018Z,0.55
2023-08-16T09:11:37.662Z,0.50
2023-08-16T09:14:05.781Z,1.05
2023-08-16T09:16:32.997Z,0.57
2023-08-16T09:19:00.424Z,0.40
2023-08-16T09:21:30.093Z,0.73
2023-08-16T09:23:59.265Z,0.68
2023-08-16T09:26:30.210Z,0.98
2023-08-16T09:29:02.163Z,0.68
2023-08-16T09:31:32.312Z,0.70
2023-08-16T09:36:30.778Z,0.70
2023-08-16T09:39:17.434Z,0.60
2023-08-16T09:41:52.326Z,0.73
2023-08-16T09:44:20.191Z,0.93
2023-08-16T09:49:18.189Z,0.73
2023-08-16T09:54:19.000Z,0.82
2023-08-16T10:04:21.548Z,0.45
2023-08-16T10:09:38.670Z,0.50
2023-08-16T10:12:07.888Z,0.52
2023-08-16T10:14:35.027Z,0.38
2023-08-16T10:17:10.175Z,0.60
2023-08-16T10:19:41.140Z,0.52
2023-08-16T10:24:54.239Z,1.35
2023-08-16T10:27:22.478Z,0.68
2023-08-16T10:30:08.336Z,0.50
2023-08-16T10:32:39.516Z,0.50
2023-08-16T10:35:07.953Z,1.98
2023-08-16T10:37:39.910Z,0.73
2023-08-16T10:40:25.494Z,0.68
2023-08-16T10:43:01.581Z,0.75
2023-08-16T10:48:12.980Z,0.60
2023-08-16T10:50:40.877Z,1.05
2023-08-16T10:53:08.794Z,0.50
2023-08-16T10:55:36.907Z,0.50
2023-08-16T10:58:03.888Z,0.50
2023-08-16T11:00:37.616Z,0.60
2023-08-16T11:03:07.900Z,0.60
2023-08-16T11:05:35.649Z,0.40
2023-08-16T11:08:03.339Z,0.68
2023-08-16T11:10:35.537Z,0.40
2023-08-16T11:13:04.607Z,0.68
2023-08-16T11:15:31.804Z,1.30
2023-08-16T11:18:08.474Z,0.68
2023-08-16T11:20:37.547Z,0.73
2023-08-16T11:23:04.915Z,1.05
2023-08-16T11:25:35.972Z,0.68
2023-08-16T11:28:06.304Z,1.00
2023-08-16T11:33:01.449Z,0.60
2023-08-16T11:35:28.702Z,0.77
2023-08-16T11:37:55.501Z,0.93
2023-08-16T11:40:25.590Z,1.27
2023-08-16T11:45:21.774Z,0.55
2023-08-16T11:47:53.132Z,0.98
2023-08-16T11:50:21.165Z,1.00
2023-08-16T11:52:58.332Z,0.82
2023-08-16T11:55:26.924Z,0.82
2023-08-16T11:57:54.381Z,0.95
2023-08-16T12:00:30.913Z,0.60
2023-08-16T12:02:58.405Z,0.63
2023-08-16T12:05:36.681Z,0.65
2023-08-16T12:08:08.071Z,0.60
2023-08-16T12:10:35.813Z,0.60
2023-08-16T12:13:16.228Z,0.90
2023-08-16T12:15:43.724Z,0.82
2023-08-16T12:18:12.010Z,0.90
2023-08-16T12:20:39.020Z,0.73
2023-08-16T12:23:06.042Z,0.88
2023-08-16T12:25:33.278Z,0.60
2023-08-16T12:28:00.216Z,0.80
2023-08-16T12:30:29.730Z,4.22
2023-08-16T12:32:56.911Z,0.80
2023-08-16T12:35:23.967Z,0.68
2023-08-16T12:45:42.841Z,0.60
2023-08-16T12:48:10.313Z,0.60
2023-08-16T12:56:08.054Z,0.50
2023-08-16T12:58:35.132Z,0.52
2023-08-16T13:03:33.871Z,1.00
2023-08-16T13:11:32.386Z,1.35
2023-08-16T13:14:01.235Z,0.73
2023-08-16T13:24:39.087Z,0.80
2023-08-16T13:27:38.496Z,0.75
2023-08-16T13:32:43.183Z,0.60
2023-08-16T13:46:02.025Z,0.90
2023-08-16T13:59:22.225Z,0.65
2023-08-16T14:01:53.677Z,0.63
2023-08-16T14:04:20.678Z,0.80
2023-08-16T14:06:47.588Z,0.55
2023-08-16T14:09:14.480Z,0.77
2023-08-16T14:11:42.388Z,0.75
2023-08-16T14:14:13.610Z,0.70
2023-08-16T14:16:40.741Z,0.68
2023-08-16T14:19:07.807Z,1.00
2023-08-16T14:21:34.772Z,0.68
2023-08-16T14:29:32.768Z,0.73
2023-08-16T14:31:59.737Z,0.77
2023-08-16T14:34:26.656Z,0.70
2023-08-16T14:47:45.243Z,0.93
2023-08-16T14:50:12.241Z,0.52
2023-08-16T14:52:39.428Z,0.55
2023-08-16T14:55:06.868Z,0.70
2023-08-16T15:00:09.780Z,0.50
2023-08-16T15:02:45.707Z,0.80
2023-08-16T15:05:13.595Z,1.23
2023-08-16T15:07:41.296Z,0.57
2023-08-16T15:10:09.339Z,0.90
2023-08-16T15:12:37.091Z,0.63
2023-08-16T15:15:06.735Z,0.60
2023-08-16T15:17:36.514Z,0.60
2023-08-16T15:20:04.039Z,0.60
2023-08-16T15:22:34.058Z,0.60
2023-08-16T15:25:01.333Z,0.65
2023-08-16T15:27:28.673Z,0.50
2023-08-16T15:29:55.815Z,0.60
2023-08-16T15:34:59.493Z,0.50
2023-08-16T15:37:48.629Z,0.63
2023-08-16T15:40:15.812Z,0.60
2023-08-16T15:50:59.198Z,0.55
2023-08-16T15:53:26.272Z,0.70
2023-08-16T15:55:57.061Z,0.77
2023-08-16T16:01:00.430Z,0.73
2023-08-16T16:03:28.560Z,1.33
2023-08-16T16:06:15.003Z,0.75
2023-08-16T16:08:41.920Z,0.47
2023-08-16T16:11:08.938Z,0.65
2023-08-16T16:13:37.134Z,2.58
2023-08-16T16:16:04.250Z,0.90
2023-08-16T16:18:40.136Z,1.20
2023-08-16T16:21:11.604Z,0.90
2023-08-16T16:23:41.230Z,0.82
2023-08-16T16:26:11.169Z,1.00
2023-08-16T16:28:40.105Z,1.40
2023-08-16T16:31:09.351Z,0.98
2023-08-16T16:33:36.808Z,1.50
2023-08-16T16:36:04.980Z,0.85
2023-08-16T16:38:31.889Z,0.93
2023-08-16T16:40:58.826Z,0.82
2023-08-16T16:43:29.343Z,0.73
2023-08-16T16:45:56.468Z,0.60
2023-08-16T16:48:24.631Z,1.70
2023-08-16T16:50:51.549Z,1.45
2023-08-16T16:53:19.478Z,2.03
2023-08-16T16:55:46.826Z,1.15
2023-08-16T16:58:13.707Z,0.90
2023-08-16T17:00:40.587Z,0.80
2023-08-16T17:03:07.730Z,1.27
2023-08-16T17:05:36.453Z,0.98
2023-08-16T17:08:06.504Z,1.10
2023-08-16T17:10:33.773Z,1.33
2023-08-16T17:13:00.811Z,0.93
2023-08-16T17:15:28.922Z,1.20
2023-08-16T17:17:55.980Z,0.90
2023-08-16T17:20:22.893Z,1.27
2023-08-16T17:22:53.035Z,1.02
2023-08-16T17:25:20.494Z,0.93
2023-08-16T17:27:49.627Z,1.00
2023-08-16T17:30:19.811Z,1.00
2023-08-16T17:32:46.974Z,1.40
2023-08-16T17:35:15.347Z,1.08
2023-08-16T17:37:45.796Z,0.80
2023-08-16T17:40:13.807Z,1.10
2023-08-16T17:42:44.134Z,9.88
2023-08-16T17:45:36.465Z,2.65
2023-08-16T17:48:03.671Z,1.30
2023-08-16T17:50:32.727Z,1.20
2023-08-16T17:53:03.869Z,0.90
2023-08-16T17:55:32.873Z,1.00
2023-08-16T17:58:00.200Z,1.35
2023-08-16T18:00:37.200Z,0.90
2023-08-16T18:03:09.010Z,1.23
2023-08-16T18:05:36.478Z,1.10
2023-08-16T18:08:05.035Z,0.90
2023-08-16T18:10:33.128Z,0.80
2023-08-16T18:13:00.276Z,0.80
2023-08-16T18:15:30.208Z,1.00
2023-08-16T18:17:57.516Z,1.20
2023-08-16T18:20:26.513Z,1.10
2023-08-16T18:22:53.496Z,1.33
2023-08-16T18:25:20.872Z,1.70
2023-08-16T18:27:48.752Z,0.90
2023-08-16T18:30:15.634Z,1.10
2023-08-16T18:32:42.740Z,1.10
2023-08-16T18:35:12.341Z,1.42
2023-08-16T18:37:40.569Z,0.85
2023-08-16T18:40:10.437Z,0.70
2023-08-16T18:45:22.857Z,1.60
2023-08-16T18:47:51.421Z,0.98
2023-08-16T18:56:02.971Z,1.20
2023-08-16T18:58:32.520Z,1.03
2023-08-16T19:01:00.208Z,1.10
2023-08-16T19:03:36.973Z,1.00
2023-08-16T19:06:05.362Z,1.00
2023-08-16T19:08:35.790Z,1.33
2023-08-16T19:11:04.393Z,1.33
2023-08-16T19:13:33.063Z,2.00
2023-08-16T19:16:00.799Z,1.00
2023-08-16T19:18:28.026Z,1.00
2023-08-16T19:20:59.531Z,0.88
2023-08-16T19:23:26.553Z,1.08
2023-08-16T19:25:58.566Z,0.88
2023-08-16T19:28:25.868Z,1.10
2023-08-16T19:30:56.782Z,4.55
2023-08-16T19:33:23.805Z,2.05
2023-08-16T19:36:09.321Z,1.75
2023-08-16T19:38:36.605Z,1.77
2023-08-16T19:41:03.593Z,1.13
2023-08-16T19:43:30.526Z,12.93
2023-08-16T19:45:57.599Z,1.23
2023-08-16T19:48:24.589Z,1.27
2023-08-16T19:50:52.861Z,1.52
2023-08-16T19:53:19.933Z,1.30
2023-08-16T19:55:53.867Z,3.08
2023-08-16T19:58:21.035Z,1.50
2023-08-16T20:00:48.529Z,1.00
2023-08-16T20:03:15.628Z,1.20
2023-08-16T20:05:42.741Z,2.13
2023-08-16T20:08:09.698Z,1.63
2023-08-16T20:10:36.966Z,1.55
2023-08-16T20:13:04.076Z,1.80
2023-08-16T20:15:31.553Z,1.25
2023-08-16T20:17:58.508Z,1.27
2023-08-16T20:20:25.862Z,1.35
2023-08-16T20:22:52.817Z,1.63
2023-08-16T20:28:05.208Z,1.60
2023-08-16T20:30:32.220Z,1.70
2023-08-16T20:32:59.173Z,1.90
2023-08-16T20:35:26.077Z,1.55
2023-08-16T20:37:53.095Z,1.83
2023-08-16T20:40:20.449Z,1.55
2023-08-16T20:42:47.809Z,1.70
2023-08-16T20:45:14.840Z,1.52
2023-08-16T20:47:45.721Z,1.40
2023-08-16T20:50:15.086Z,1.92
2023-08-16T20:58:13.002Z,1.95
2023-08-16T21:00:40.137Z,1.40
2023-08-16T21:03:07.146Z,1.75
2023-08-16T21:05:34.106Z,1.38
2023-08-16T21:08:01.035Z,2.58
2023-08-16T21:10:27.975Z,1.65
2023-08-16T21:12:54.872Z,1.75
2023-08-16T21:15:21.910Z,2.10
2023-08-16T21:17:48.975Z,1.73
2023-08-16T21:20:17.793Z,1.50
2023-08-16T21:22:47.542Z,1.42
2023-08-16T21:25:14.520Z,1.52
2023-08-16T21:27:41.580Z,2.70
2023-08-16T21:30:09.405Z,1.55
2023-08-16T21:32:36.870Z,2.92
2023-08-16T21:35:03.957Z,1.45
2023-08-16T21:37:30.769Z,1.25
2023-08-16T21:39:57.696Z,1.33
2023-08-16T21:42:24.626Z,1.77
2023-08-16T21:44:51.611Z,1.95
2023-08-16T21:47:18.510Z,1.25
2023-08-16T21:49:45.502Z,1.85
2023-08-16T21:52:12.444Z,1.73
2023-08-16T21:54:39.426Z,1.92
2023-08-16T21:57:06.248Z,4.25
2023-08-16T21:59:33.216Z,2.25
2023-08-16T22:02:00.391Z,2.28
2023-08-16T22:04:27.330Z,1.80
2023-08-16T22:06:54.315Z,1.88
2023-08-16T22:09:21.277Z,1.80
2023-08-16T22:11:48.213Z,1.70
2023-08-16T22:14:16.935Z,1.48
2023-08-16T22:16:44.608Z,2.00
2023-08-16T22:19:13.060Z,1.73
2023-08-16T22:21:41.461Z,1.75
2023-08-16T22:24:08.893Z,1.70
2023-08-16T22:26:36.461Z,2.17
2023-08-16T22:29:03.797Z,1.67
2023-08-16T22:31:30.918Z,1.70
2023-08-16T22:33:57.891Z,1.75
2023-08-16T22:36:24.857Z,2.10
2023-08-16T22:38:51.890Z,1.98
2023-08-16T22:41:19.072Z,1.77
2023-08-16T22:43:48.813Z,2.22
2023-08-16T22:46:17.036Z,2.40
2023-08-16T22:48:44.026Z,2.78
2023-08-16T22:51:11.058Z,2.63
2023-08-16T22:53:38.004Z,2.72
2023-08-16T22:56:05.074Z,2.40
2023-08-16T22:58:32.481Z,2.83
2023-08-16T23:00:59.475Z,2.80
2023-08-16T23:03:26.349Z,2.30
2023-08-16T23:05:53.846Z,2.25
2023-08-16T23:08:20.617Z,2.40
2023-08-16T23:10:47.555Z,2.65
2023-08-16T23:13:14.662Z,2.25
2023-08-16T23:15:41.675Z,2.42
2023-08-16T23:18:08.882Z,2.63
2023-08-16T23:20:36.107Z,2.53
2023-08-16T23:23:03.258Z,2.38
2023-08-16T23:25:30.136Z,2.78
2023-08-16T23:27:56.975Z,4.25
2023-08-16T23:30:24.618Z,3.10
2023-08-16T23:32:51.676Z,3.45
2023-08-16T23:35:18.827Z,2.30
2023-08-16T23:37:46.000Z,2.53
2023-08-16T23:40:13.316Z,2.47
2023-08-16T23:42:40.251Z,2.50
2023-08-16T23:45:08.650Z,2.67
2023-08-16T23:47:35.754Z,2.03
2023-08-16T23:50:06.179Z,2.33
2023-08-16T23:52:33.057Z,2.27
2023-08-16T23:54:59.988Z,1.85
2023-08-16T23:57:27.081Z,2.15
2023-08-16T23:59:54.325Z,2.10
